createdAt,value
2024-02-17T00:02:05.516Z,7.60
2024-02-17T00:07:14.598Z,9.30
2024-02-17T00:12:22.984Z,8.95
2024-02-17T00:17:25.412Z,9.70
2024-02-17T00:22:34.383Z,10.93
2024-02-17T00:27:40.795Z,10.57
2024-02-17T00:32:43.395Z,10.50
2024-02-17T00:37:48.107Z,10.35
2024-02-17T00:42:51.586Z,10.80
2024-02-17T00:47:53.808Z,10.95
2024-02-17T00:52:57.513Z,13.00
2024-02-17T00:58:02.364Z,12.23
2024-02-17T01:03:07.082Z,12.40
2024-02-17T01:08:12.878Z,11.68
2024-02-17T01:13:15.442Z,9.93
2024-02-17T01:18:18.167Z,10.45
2024-02-17T01:23:21.780Z,9.25
2024-02-17T01:28:31.593Z,9.88
2024-02-17T01:33:37.382Z,10.13
2024-02-17T01:38:40.591Z,10.87
2024-02-17T01:43:42.631Z,12.95
2024-02-17T01:48:45.198Z,8.27
2024-02-17T01:53:47.579Z,11.30
2024-02-17T01:58:51.503Z,9.80
2024-02-17T02:03:53.567Z,11.15
2024-02-17T02:08:55.636Z,10.52
2024-02-17T02:14:18.525Z,9.00
2024-02-17T02:19:20.806Z,7.80
2024-02-17T02:24:24.211Z,8.70
2024-02-17T02:29:27.269Z,10.93
2024-02-17T02:34:29.466Z,8.55
2024-02-17T02:39:31.609Z,9.75
2024-02-17T02:44:33.760Z,9.50
2024-02-17T02:49:35.834Z,9.68
2024-02-17T02:54:38.221Z,10.57
2024-02-17T02:59:40.489Z,9.70
2024-02-17T03:04:44.445Z,10.02
2024-02-17T03:09:47.180Z,9.88
2024-02-17T03:14:51.445Z,10.45
2024-02-17T03:19:53.840Z,12.73
2024-02-17T03:24:56.342Z,10.63
2024-02-17T03:29:58.328Z,10.15
2024-02-17T03:35:01.984Z,9.93
2024-02-17T03:40:08.224Z,10.60
2024-02-17T03:45:10.648Z,10.63
2024-02-17T03:50:12.664Z,10.43
2024-02-17T03:55:14.902Z,7.85
2024-02-17T04:00:17.434Z,12.05
2024-02-17T04:05:19.934Z,10.85
2024-02-17T04:10:21.957Z,9.35
2024-02-17T04:15:25.143Z,8.07
2024-02-17T04:20:27.692Z,9.32
2024-02-17T04:25:29.817Z,10.45
2024-02-17T04:30:33.126Z,9.88
2024-02-17T04:35:36.404Z,10.43
2024-02-17T04:40:38.852Z,9.02
2024-02-17T04:45:40.953Z,10.18
2024-02-17T04:50:43.129Z,10.75
2024-02-17T04:55:45.162Z,10.13
2024-02-17T05:00:47.818Z,7.93
2024-02-17T05:06:07.702Z,11.73
2024-02-17T05:11:11.022Z,9.52
2024-02-17T05:16:14.377Z,9.65
2024-02-17T05:21:19.973Z,8.57
2024-02-17T05:26:22.684Z,9.13
2024-02-17T05:31:29.019Z,8.75
2024-02-17T05:36:31.117Z,8.25
2024-02-17T05:41:33.523Z,7.90
2024-02-17T05:46:35.593Z,9.20
2024-02-17T05:51:37.642Z,11.35
2024-02-17T05:56:42.167Z,10.32
2024-02-17T06:01:44.388Z,9.75
2024-02-17T06:06:46.902Z,8.70
2024-02-17T06:11:52.215Z,9.65
2024-02-17T06:16:54.286Z,10.35
2024-02-17T06:21:59.229Z,9.13
2024-02-17T06:27:02.200Z,9.95
2024-02-17T06:32:04.877Z,11.20
2024-02-17T06:37:07.026Z,9.50
2024-02-17T06:42:09.150Z,9.32
2024-02-17T06:47:12.162Z,8.00
2024-02-17T06:52:15.152Z,9.45
2024-02-17T06:57:18.210Z,8.70
2024-02-17T07:02:27.527Z,9.13
2024-02-17T07:07:30.586Z,8.50
2024-02-17T07:12:36.339Z,9.13
2024-02-17T07:17:38.321Z,8.90
2024-02-17T07:22:40.610Z,9.23
2024-02-17T07:27:42.678Z,11.13
2024-02-17T07:32:44.724Z,11.15
2024-02-17T07:37:46.819Z,10.45
2024-02-17T07:42:49.402Z,10.25
2024-02-17T07:47:51.733Z,10.32
2024-02-17T07:52:55.103Z,11.20
2024-02-17T07:57:57.394Z,11.30
2024-02-17T08:02:59.509Z,10.30
2024-02-17T08:08:01.522Z,8.60
2024-02-17T08:13:03.990Z,10.80
2024-02-17T08:18:07.606Z,10.05
2024-02-17T08:23:09.753Z,9.90
2024-02-17T08:28:12.157Z,9.70
2024-02-17T08:33:14.851Z,9.63
2024-02-17T08:38:18.286Z,10.88
2024-02-17T08:43:20.655Z,11.20
2024-02-17T08:48:22.944Z,8.48
2024-02-17T08:53:26.125Z,10.57
2024-02-17T08:58:28.892Z,8.50
2024-02-17T09:03:31.393Z,11.13
2024-02-17T09:08:33.558Z,10.48
2024-02-17T09:13:35.903Z,9.32
2024-02-17T09:18:39.315Z,9.35
2024-02-17T09:23:41.518Z,9.45
2024-02-17T09:28:43.559Z,9.90
2024-02-17T09:33:45.585Z,10.18
2024-02-17T09:38:47.713Z,9.90
2024-02-17T09:43:51.163Z,8.57
2024-02-17T09:48:53.543Z,10.40
2024-02-17T09:53:58.467Z,10.90
2024-02-17T09:59:00.456Z,11.00
2024-02-17T10:04:05.302Z,10.35
2024-02-17T10:09:07.985Z,11.40
2024-02-17T10:14:10.686Z,9.30
2024-02-17T10:19:15.219Z,9.13
2024-02-17T10:24:17.473Z,11.27
2024-02-17T10:29:19.683Z,11.45
2024-02-17T10:34:21.764Z,13.40
2024-02-17T10:39:25.612Z,12.10
2024-02-17T10:44:30.972Z,13.18
2024-02-17T10:49:45.626Z,12.45
2024-02-17T10:54:57.962Z,11.20
2024-02-17T11:00:01.110Z,8.18
2024-02-17T11:05:05.100Z,7.90
2024-02-17T11:10:08.318Z,7.90
2024-02-17T11:15:12.260Z,7.50
2024-02-17T11:20:17.194Z,8.25
2024-02-17T11:25:37.047Z,9.45
2024-02-17T11:30:56.504Z,8.90
2024-02-17T11:36:03.190Z,6.10
2024-02-17T11:41:08.107Z,9.75
2024-02-17T11:46:16.892Z,8.50
2024-02-17T11:51:28.461Z,9.98
2024-02-17T11:56:35.520Z,9.75
2024-02-17T12:01:43.900Z,10.20
2024-02-17T12:06:49.771Z,9.32
2024-02-17T12:11:53.498Z,7.72
2024-02-17T12:16:57.237Z,8.55
2024-02-17T12:21:59.640Z,10.65
2024-02-17T12:27:02.757Z,7.65
2024-02-17T12:32:05.849Z,7.68
2024-02-17T12:37:10.185Z,8.25
2024-02-17T12:42:12.511Z,8.63
2024-02-17T12:47:18.149Z,9.18
2024-02-17T12:52:20.957Z,8.45
2024-02-17T12:57:23.557Z,9.48
2024-02-17T13:02:27.234Z,8.93
2024-02-17T13:07:33.485Z,8.27
2024-02-17T13:12:35.868Z,9.90
2024-02-17T13:17:42.718Z,8.90
2024-02-17T13:22:45.671Z,10.60
2024-02-17T13:27:49.100Z,11.05
2024-02-17T13:32:51.638Z,11.23
2024-02-17T13:37:58.044Z,11.85
2024-02-17T13:43:02.383Z,9.68
2024-02-17T13:48:12.915Z,11.32
2024-02-17T13:53:20.426Z,10.48
2024-02-17T13:58:23.772Z,13.48
2024-02-17T14:03:27.204Z,11.70
2024-02-17T14:08:33.121Z,9.27
2024-02-17T14:13:39.362Z,13.40
2024-02-17T14:23:54.243Z,11.20
2024-02-17T14:28:57.231Z,11.43
2024-02-17T14:34:05.828Z,11.23
2024-02-17T14:39:09.338Z,10.88
2024-02-17T14:44:12.612Z,10.75
2024-02-17T14:49:18.349Z,10.60
2024-02-17T14:54:23.752Z,8.75
2024-02-17T14:59:34.682Z,9.88
2024-02-17T15:04:40.515Z,9.90
2024-02-17T15:09:44.821Z,8.98
2024-02-17T15:14:51.970Z,8.65
2024-02-17T15:20:05.639Z,9.15
2024-02-17T15:25:09.021Z,8.25
2024-02-17T15:30:13.235Z,9.43
2024-02-17T15:35:18.200Z,9.07
2024-02-17T15:40:22.624Z,9.82
2024-02-17T15:45:36.642Z,9.75
2024-02-17T15:50:39.873Z,10.35
2024-02-17T15:55:44.059Z,9.88
2024-02-17T16:00:51.689Z,9.75
2024-02-17T16:05:55.216Z,11.23
2024-02-17T16:10:57.591Z,8.25
2024-02-17T16:16:01.257Z,10.02
2024-02-17T16:21:14.702Z,8.55
2024-02-17T16:26:17.485Z,6.85
2024-02-17T16:31:19.648Z,9.10
2024-02-17T16:36:21.620Z,7.80
2024-02-17T16:41:23.587Z,7.38
2024-02-17T16:46:26.068Z,9.80
2024-02-17T16:51:28.885Z,9.35
2024-02-17T16:56:31.887Z,8.80
2024-02-17T17:01:34.154Z,9.50
2024-02-17T17:06:39.463Z,9.18
2024-02-17T17:11:41.438Z,8.73
2024-02-17T17:16:43.518Z,9.63
2024-02-17T17:21:45.667Z,12.88
2024-02-17T17:26:51.021Z,17.98
2024-02-17T17:31:53.313Z,11.35
2024-02-17T17:36:55.424Z,10.43
2024-02-17T17:41:57.402Z,16.80
2024-02-17T17:47:00.874Z,15.90
2024-02-17T17:52:03.028Z,10.13
2024-02-17T17:57:05.646Z,12.98
2024-02-17T18:02:08.169Z,11.70
2024-02-17T18:07:10.980Z,10.85
2024-02-17T18:12:13.241Z,13.90
2024-02-17T18:17:15.263Z,17.17
2024-02-17T18:22:17.464Z,15.38
2024-02-17T18:27:20.711Z,11.43
2024-02-17T18:32:24.439Z,12.38
2024-02-17T18:37:26.458Z,12.25
2024-02-17T18:42:28.645Z,15.40
2024-02-17T18:47:32.765Z,15.65
2024-02-17T18:52:35.305Z,15.30
2024-02-17T18:57:37.522Z,13.70
2024-02-17T19:02:39.577Z,13.02
2024-02-17T19:07:44.237Z,17.92
2024-02-17T19:12:47.708Z,14.00
2024-02-17T19:17:49.791Z,15.75
2024-02-17T19:22:54.146Z,21.33
2024-02-17T19:27:59.064Z,16.38
2024-02-17T19:33:01.063Z,16.60
2024-02-17T19:38:03.270Z,19.17
2024-02-17T19:43:08.610Z,18.60
2024-02-17T19:48:10.929Z,21.83
2024-02-17T19:53:14.890Z,16.08
2024-02-17T19:58:17.219Z,15.48
2024-02-17T20:03:38.596Z,16.80
2024-02-17T20:08:49.614Z,15.30
2024-02-17T20:13:58.175Z,14.35
2024-02-17T20:19:01.072Z,17.30
2024-02-17T20:24:10.053Z,15.00
2024-02-17T20:29:13.633Z,11.90
2024-02-17T20:34:19.855Z,11.93
2024-02-17T20:39:25.178Z,11.40
2024-02-17T20:44:29.970Z,10.32
2024-02-17T20:49:32.771Z,11.10
2024-02-17T20:54:46.200Z,10.73
2024-02-17T20:59:51.701Z,9.43
2024-02-17T21:04:58.312Z,9.35
2024-02-17T21:10:05.512Z,8.80
2024-02-17T21:20:40.038Z,7.45
2024-02-17T21:25:43.921Z,7.85
2024-02-17T21:30:50.572Z,6.53
2024-02-17T21:35:59.228Z,6.07
2024-02-17T21:41:15.942Z,7.93
2024-02-17T21:46:22.167Z,6.40
2024-02-17T21:56:51.265Z,8.32
2024-02-17T22:02:01.981Z,7.38
2024-02-17T22:07:12.087Z,7.70
2024-02-17T22:12:22.550Z,7.40
2024-02-17T22:17:24.974Z,6.63
2024-02-17T22:22:27.510Z,6.70
2024-02-17T22:27:33.230Z,6.68
2024-02-17T22:32:37.073Z,5.73
2024-02-17T22:37:44.105Z,5.07
2024-02-17T22:42:50.145Z,5.75
2024-02-17T22:47:52.639Z,5.53
